Terminal Aerodrome Forecast
Issued by NWS New Orleans/Baton Rouge, LA

Home | Current Version | Previous Version | Text Only | Print | Product List | Glossary On
Versions: 1 2 3 4 5 6 7 8 9 10 11 12 13 14 15 16 17
000
FTUS44 KLIX 030200 AAA
TAFBTR
TAF AMD
KBTR 030242Z 0303/0324 00000KT 1/4SM FG VV002
     FM031200 14006KT 1/4SM FG OVC003
     FM031500 15007KT 3SM BR OVC003
     FM031800 15008KT P6SM OVC004
     FM032100 18009KT P6SM BKN015=

USA.gov is the U.S. government's official web portal to all federal, state and local government web resources and services.